createdAt,value
2023-03-03T00:00:54.720Z,16.70
2023-03-03T00:05:29.899Z,15.70
2023-03-03T00:08:47.109Z,16.62
2023-03-03T00:12:19.939Z,22.00
2023-03-03T00:15:42.815Z,16.50
2023-03-03T00:19:28.649Z,20.23
2023-03-03T00:23:35.823Z,14.10
2023-03-03T00:27:17.252Z,13.35
2023-03-03T00:39:23.878Z,20.50
2023-03-03T00:47:34.261Z,18.33
2023-03-03T00:55:00.146Z,20.65
2023-03-03T00:58:45.943Z,16.67
2023-03-03T01:02:09.741Z,18.52
2023-03-03T01:09:46.889Z,19.27
2023-03-03T01:17:43.009Z,19.37
2023-03-03T01:25:20.982Z,17.42
2023-03-03T01:29:07.281Z,16.60
2023-03-03T01:32:42.760Z,13.73
2023-03-03T01:40:33.122Z,24.17
2023-03-03T01:43:56.843Z,18.12
2023-03-03T01:47:34.991Z,18.17
2023-03-03T01:58:56.279Z,18.20
2023-03-03T02:02:41.926Z,17.80
2023-03-03T02:05:45.928Z,21.42
2023-03-03T02:09:22.815Z,27.27
2023-03-03T02:17:14.324Z,13.50
2023-03-03T02:21:25.955Z,15.40
2023-03-03T02:24:58.130Z,18.95
2023-03-03T02:28:41.871Z,14.13
2023-03-03T02:36:39.926Z,19.75
2023-03-03T02:40:03.494Z,22.85
2023-03-03T02:43:47.978Z,18.47
2023-03-03T02:47:25.652Z,22.25
2023-03-03T02:59:28.217Z,18.15
2023-03-03T03:03:14.524Z,20.35
2023-03-03T03:06:39.227Z,22.27
2023-03-03T03:10:01.877Z,25.23
2023-03-03T03:13:34.695Z,23.65
2023-03-03T03:17:14.585Z,19.08
2023-03-03T03:20:57.984Z,25.88
2023-03-03T03:24:21.072Z,23.62
2023-03-03T03:27:47.154Z,15.60
2023-03-03T03:31:54.039Z,18.45
2023-03-03T03:35:20.122Z,20.67
2023-03-03T03:46:41.847Z,19.85
2023-03-03T03:50:27.941Z,20.23
2023-03-03T03:53:57.598Z,24.67
2023-03-03T03:57:02.236Z,23.85
2023-03-03T04:00:46.839Z,25.85
2023-03-03T04:03:52.651Z,24.23
2023-03-03T04:07:28.570Z,26.90
2023-03-03T04:11:04.791Z,15.88
2023-03-03T04:14:48.295Z,19.20
2023-03-03T04:18:15.158Z,17.03
2023-03-03T04:21:47.390Z,20.70
2023-03-03T04:25:18.535Z,21.30
2023-03-03T04:29:08.904Z,28.77
2023-03-03T04:32:14.914Z,23.15
2023-03-03T04:35:38.840Z,25.98
2023-03-03T04:39:21.989Z,32.17
2023-03-03T04:42:45.691Z,26.77
2023-03-03T04:46:28.349Z,20.17
2023-03-03T04:50:12.238Z,27.73
2023-03-03T04:53:55.101Z,30.48
2023-03-03T04:57:04.329Z,26.17
2023-03-03T05:00:57.630Z,20.70
2023-03-03T05:04:44.411Z,19.05
2023-03-03T05:07:48.957Z,25.48
2023-03-03T05:11:35.294Z,29.15
2023-03-03T05:14:43.257Z,23.05
2023-03-03T05:18:07.136Z,27.45
2023-03-03T05:21:10.527Z,29.63
2023-03-03T05:24:35.825Z,20.77
2023-03-03T05:28:00.112Z,24.15
2023-03-03T05:31:35.619Z,19.15
2023-03-03T05:34:38.345Z,20.15
2023-03-03T05:38:05.293Z,20.90
2023-03-03T05:41:26.256Z,17.02
2023-03-03T05:44:35.852Z,23.42
2023-03-03T05:47:42.517Z,19.12
2023-03-03T05:51:05.901Z,24.12
2023-03-03T05:54:09.504Z,29.02
2023-03-03T05:57:33.339Z,21.58
2023-03-03T06:00:56.284Z,19.73
2023-03-03T06:04:05.347Z,21.60
2023-03-03T06:07:16.235Z,22.67
2023-03-03T06:10:39.463Z,24.45
2023-03-03T06:14:07.187Z,25.53
2023-03-03T06:17:36.261Z,22.50
2023-03-03T06:20:44.823Z,17.80
2023-03-03T06:24:12.282Z,22.87
2023-03-03T06:27:37.243Z,22.30
2023-03-03T06:30:41.598Z,19.73
2023-03-03T06:34:14.514Z,19.17
2023-03-03T06:37:37.642Z,21.23
2023-03-03T06:41:02.365Z,20.15
2023-03-03T06:44:45.367Z,24.40
2023-03-03T06:47:56.541Z,39.50
2023-03-03T06:51:41.811Z,26.70
2023-03-03T06:55:13.962Z,27.00
2023-03-03T06:58:37.318Z,36.15
2023-03-03T07:01:46.939Z,35.38
2023-03-03T07:04:58.915Z,29.90
2023-03-03T07:08:17.018Z,28.65
2023-03-03T07:12:22.988Z,27.67
2023-03-03T07:15:50.001Z,31.17
2023-03-03T07:19:21.890Z,29.08
2023-03-03T07:22:44.929Z,31.08
2023-03-03T07:26:33.570Z,29.90
2023-03-03T07:30:28.730Z,30.52
2023-03-03T07:34:17.778Z,32.00
2023-03-03T07:37:46.726Z,29.33
2023-03-03T07:41:26.058Z,33.95
2023-03-03T07:49:15.758Z,29.80
2023-03-03T07:53:20.831Z,25.90
2023-03-03T07:57:40.116Z,31.12
2023-03-03T08:01:29.912Z,27.73
2023-03-03T08:04:53.117Z,24.33
2023-03-03T08:08:19.808Z,25.27
2023-03-03T08:11:57.728Z,28.35
2023-03-03T08:15:21.757Z,36.90
2023-03-03T08:19:09.490Z,29.48
2023-03-03T08:22:38.134Z,38.88
2023-03-03T08:26:26.542Z,34.58
2023-03-03T08:30:01.156Z,26.87
2023-03-03T08:33:41.397Z,29.35
2023-03-03T08:37:12.248Z,30.70
2023-03-03T08:40:40.327Z,27.05
2023-03-03T08:44:23.525Z,30.52
2023-03-03T08:47:54.112Z,27.58
2023-03-03T08:51:26.972Z,31.27
2023-03-03T08:54:46.806Z,26.52
2023-03-03T08:58:06.172Z,22.95
2023-03-03T09:01:45.887Z,23.42
2023-03-03T09:05:07.623Z,24.63
2023-03-03T09:08:48.696Z,23.17
2023-03-03T09:11:59.881Z,23.45
2023-03-03T09:15:39.230Z,20.58
2023-03-03T09:19:25.934Z,24.92
2023-03-03T09:22:50.453Z,22.05
2023-03-03T09:26:35.667Z,20.83
2023-03-03T09:29:54.107Z,19.30
2023-03-03T09:33:42.588Z,16.55
2023-03-03T09:37:25.092Z,17.08
2023-03-03T09:41:07.548Z,16.30
2023-03-03T09:44:46.273Z,21.67
2023-03-03T09:48:10.973Z,22.45
2023-03-03T09:51:32.151Z,18.98
2023-03-03T09:55:20.269Z,19.35
2023-03-03T10:03:39.269Z,22.17
2023-03-03T10:07:45.301Z,20.73
2023-03-03T10:12:08.499Z,18.70
2023-03-03T10:16:09.808Z,21.45
2023-03-03T10:20:01.162Z,20.48
2023-03-03T10:24:05.989Z,22.27
2023-03-03T10:28:14.844Z,21.73
2023-03-03T10:32:16.627Z,22.52
2023-03-03T10:36:22.249Z,15.95
2023-03-03T10:40:17.007Z,16.87
2023-03-03T10:44:33.994Z,17.48
2023-03-03T10:48:45.011Z,20.08
2023-03-03T10:52:37.542Z,20.75
2023-03-03T10:56:21.415Z,14.50
2023-03-03T10:59:52.407Z,16.62
2023-03-03T11:03:52.518Z,19.10
2023-03-03T11:07:35.674Z,15.52
2023-03-03T11:11:22.936Z,14.02
2023-03-03T11:15:09.914Z,13.00
2023-03-03T11:18:32.703Z,12.80
2023-03-03T11:22:37.480Z,10.20
2023-03-03T11:26:18.393Z,12.50
2023-03-03T11:29:45.539Z,9.98
2023-03-03T11:33:05.194Z,13.88
2023-03-03T11:36:08.636Z,13.30
2023-03-03T11:39:37.532Z,9.80
2023-03-03T11:42:49.271Z,12.60
2023-03-03T11:46:00.414Z,13.07
2023-03-03T11:49:25.369Z,9.68
2023-03-03T11:53:20.368Z,20.25
2023-03-03T11:56:26.130Z,16.10
2023-03-03T12:00:12.433Z,14.85
2023-03-03T12:07:18.515Z,13.65
2023-03-03T12:11:02.644Z,14.07
2023-03-03T12:14:25.692Z,10.98
2023-03-03T12:18:02.700Z,12.02
2023-03-03T12:21:27.848Z,14.35
2023-03-03T12:25:06.963Z,11.35
2023-03-03T12:28:19.888Z,12.70
2023-03-03T12:31:52.225Z,13.20
2023-03-03T12:35:16.138Z,13.02
2023-03-03T12:39:00.768Z,18.15
2023-03-03T12:42:17.331Z,13.05
2023-03-03T12:50:07.494Z,10.05
2023-03-03T12:54:07.758Z,11.20
2023-03-03T12:57:49.053Z,13.25
2023-03-03T13:01:23.602Z,14.15
2023-03-03T13:04:32.865Z,9.85
2023-03-03T13:07:57.521Z,10.40
2023-03-03T13:11:37.153Z,11.75
2023-03-03T13:15:24.814Z,9.98
2023-03-03T13:18:44.862Z,11.98
2023-03-03T13:22:23.128Z,13.13
2023-03-03T13:25:56.150Z,9.60
2023-03-03T13:29:16.019Z,12.15
2023-03-03T13:32:24.563Z,9.40
2023-03-03T13:35:40.590Z,11.18
2023-03-03T13:38:58.971Z,12.82
2023-03-03T13:42:24.002Z,7.90
2023-03-03T13:45:54.426Z,10.13
2023-03-03T13:49:03.650Z,11.75
2023-03-03T13:52:12.109Z,20.60
2023-03-03T13:55:57.993Z,9.27
2023-03-03T13:59:27.518Z,9.63
2023-03-03T14:02:52.865Z,12.52
2023-03-03T14:06:03.800Z,11.57
2023-03-03T14:10:03.104Z,14.02
2023-03-03T14:13:12.828Z,13.25
2023-03-03T14:16:51.889Z,12.88
2023-03-03T14:20:24.865Z,14.73
2023-03-03T14:23:48.939Z,9.85
2023-03-03T14:31:32.502Z,12.15
2023-03-03T14:34:43.225Z,12.18
2023-03-03T14:37:48.834Z,13.82
2023-03-03T14:41:13.496Z,11.40
2023-03-03T14:44:27.176Z,11.98
2023-03-03T14:47:36.344Z,12.57
2023-03-03T14:50:42.961Z,11.30
2023-03-03T14:54:35.654Z,9.40
2023-03-03T14:58:00.310Z,11.98
2023-03-03T15:01:34.181Z,13.43
2023-03-03T15:04:39.727Z,12.65
2023-03-03T15:08:12.527Z,14.77
2023-03-03T15:11:36.865Z,15.27
2023-03-03T15:14:45.989Z,12.02
2023-03-03T15:18:04.597Z,17.62
2023-03-03T15:29:24.467Z,12.23
2023-03-03T15:32:33.919Z,11.88
2023-03-03T15:36:05.221Z,15.27
2023-03-03T15:39:10.254Z,13.77
2023-03-03T15:42:38.379Z,11.40
2023-03-03T15:45:54.442Z,12.20
2023-03-03T15:50:16.140Z,14.68
2023-03-03T15:54:20.730Z,15.52
2023-03-03T15:58:43.604Z,15.20
2023-03-03T16:02:14.830Z,12.93
2023-03-03T16:06:43.880Z,16.35
2023-03-03T16:10:12.542Z,13.05
2023-03-03T16:13:41.945Z,20.73
2023-03-03T16:17:12.843Z,12.65
2023-03-03T16:21:23.237Z,17.12
2023-03-03T16:24:59.814Z,17.02
2023-03-03T16:29:03.837Z,14.82
2023-03-03T16:32:37.066Z,17.23
2023-03-03T16:36:53.782Z,16.70
2023-03-03T16:40:31.385Z,13.10
2023-03-03T16:44:52.855Z,13.30
2023-03-03T16:48:57.176Z,14.20
2023-03-03T16:52:23.845Z,14.48
2023-03-03T16:55:42.411Z,15.10
2023-03-03T17:03:17.107Z,12.98
2023-03-03T17:07:03.345Z,15.85
2023-03-03T17:10:53.678Z,19.65
2023-03-03T17:14:22.856Z,14.20
2023-03-03T17:18:38.831Z,13.18
2023-03-03T17:22:43.156Z,18.00
2023-03-03T17:26:58.718Z,15.48
2023-03-03T17:31:06.259Z,13.30
2023-03-03T17:35:47.616Z,15.90
2023-03-03T17:39:46.083Z,18.52
2023-03-03T17:43:46.746Z,20.60
2023-03-03T17:47:23.278Z,17.17
2023-03-03T17:51:21.766Z,21.58
2023-03-03T17:54:37.965Z,22.87
2023-03-03T17:58:43.322Z,17.52
2023-03-03T18:02:45.317Z,12.90
2023-03-03T18:07:02.715Z,17.50
2023-03-03T18:10:21.466Z,16.80
2023-03-03T18:14:03.817Z,15.90
2023-03-03T18:17:36.901Z,15.88
2023-03-03T18:21:31.215Z,13.85
2023-03-03T18:25:00.633Z,17.45
2023-03-03T18:28:49.393Z,13.95
2023-03-03T18:32:24.254Z,25.27
2023-03-03T18:35:38.594Z,18.60
2023-03-03T18:38:49.836Z,19.25
2023-03-03T18:42:23.840Z,20.45
2023-03-03T18:45:35.147Z,16.75
2023-03-03T18:48:57.537Z,20.02
2023-03-03T18:52:33.765Z,20.25
2023-03-03T18:55:49.019Z,32.38
2023-03-03T18:59:31.280Z,32.08
2023-03-03T19:02:42.500Z,25.65
2023-03-03T19:06:10.605Z,25.20
2023-03-03T19:09:51.557Z,25.20
2023-03-03T19:13:35.237Z,20.77
2023-03-03T19:16:38.791Z,16.42
2023-03-03T19:20:18.960Z,24.63
2023-03-03T19:24:00.997Z,19.62
2023-03-03T19:27:56.494Z,17.45
2023-03-03T19:31:12.186Z,17.33
2023-03-03T19:35:12.082Z,20.27
2023-03-03T19:39:02.781Z,16.98
2023-03-03T19:43:08.973Z,40.75
2023-03-03T19:47:06.566Z,27.90
2023-03-03T19:50:24.953Z,20.90
2023-03-03T19:54:38.200Z,19.80
2023-03-03T19:58:10.091Z,19.87
2023-03-03T20:01:33.248Z,23.05
2023-03-03T20:05:19.418Z,23.15
2023-03-03T20:08:32.986Z,25.75
2023-03-03T20:12:22.998Z,21.58
2023-03-03T20:19:58.561Z,26.85
2023-03-03T20:23:22.677Z,23.85
2023-03-03T20:26:39.196Z,31.65
2023-03-03T20:30:37.052Z,30.90
2023-03-03T20:34:09.821Z,24.35
2023-03-03T20:37:44.678Z,27.23
2023-03-03T20:40:58.282Z,29.08
2023-03-03T20:44:54.439Z,30.50
2023-03-03T20:48:54.846Z,26.30
2023-03-03T20:52:11.546Z,31.27
2023-03-03T20:55:48.745Z,23.08
2023-03-03T20:59:00.650Z,24.25
2023-03-03T21:02:32.202Z,23.55
2023-03-03T21:05:38.199Z,26.10
2023-03-03T21:08:57.712Z,27.83
2023-03-03T21:12:10.047Z,20.98
2023-03-03T21:15:35.862Z,30.52
2023-03-03T21:18:39.440Z,25.95
2023-03-03T21:24:56.725Z,27.62
2023-03-03T21:28:45.106Z,21.37
2023-03-03T21:31:51.879Z,25.52
2023-03-03T21:35:11.111Z,29.45
2023-03-03T21:38:37.345Z,21.42
2023-03-03T21:42:01.218Z,24.83
2023-03-03T21:45:12.727Z,18.65
2023-03-03T21:48:40.122Z,20.88
2023-03-03T21:51:46.027Z,25.67
2023-03-03T21:54:57.963Z,27.48
2023-03-03T21:58:42.143Z,19.02
2023-03-03T22:01:51.130Z,19.52
2023-03-03T22:05:34.037Z,15.20
2023-03-03T22:08:45.305Z,21.50
2023-03-03T22:12:20.761Z,16.05
2023-03-03T22:16:04.189Z,25.23
2023-03-03T22:19:34.901Z,27.75
2023-03-03T22:22:58.686Z,18.70
2023-03-03T22:26:07.064Z,23.50
2023-03-03T22:29:12.384Z,26.50
2023-03-03T22:32:16.291Z,18.17
2023-03-03T22:35:59.705Z,24.95
2023-03-03T22:39:04.174Z,17.30
2023-03-03T22:46:43.001Z,17.60
2023-03-03T22:50:26.302Z,22.13
2023-03-03T22:53:48.999Z,18.80
2023-03-03T22:56:54.451Z,18.95
2023-03-03T23:00:42.624Z,14.27
2023-03-03T23:08:19.513Z,19.45
2023-03-03T23:15:51.528Z,17.95
2023-03-03T23:19:26.824Z,23.35
2023-03-03T23:23:31.458Z,18.87
2023-03-03T23:27:18.696Z,15.07
2023-03-03T23:31:02.475Z,12.77
2023-03-03T23:34:25.250Z,18.05
2023-03-03T23:37:54.432Z,14.63
2023-03-03T23:41:30.206Z,15.50
2023-03-03T23:45:06.721Z,18.02
2023-03-03T23:49:02.467Z,20.15
2023-03-03T23:52:40.946Z,18.98
2023-03-03T23:56:06.385Z,13.77
2023-03-03T23:59:29.526Z,17.30
